sensor_id;sensor_type;location;lat;lon;timestamp;pressure;altitude;pressure_sealevel;temperature;humidity
72685;BME280;61365;52.162;4.500;2022-10-23T00:01:25;101330.50;;;12.85;91.31
72685;BME280;61365;52.162;4.500;2022-10-23T00:06:28;101328.75;;;12.81;92.10
72685;BME280;61365;52.162;4.500;2022-10-23T00:08:55;101331.41;;;12.73;92.03
72685;BME280;61365;52.162;4.500;2022-10-23T00:11:23;101322.63;;;12.65;92.28
72685;BME280;61365;52.162;4.500;2022-10-23T00:13:57;101319.06;;;12.78;92.02
72685;BME280;61365;52.162;4.500;2022-10-23T00:16:26;101327.00;;;12.70;91.39
72685;BME280;61365;52.162;4.500;2022-10-23T00:18:52;101317.38;;;12.52;93.55
72685;BME280;61365;52.162;4.500;2022-10-23T00:21:19;101322.63;;;12.66;91.93
72685;BME280;61365;52.162;4.500;2022-10-23T00:23:46;101318.22;;;12.62;92.88
72685;BME280;61365;52.162;4.500;2022-10-23T00:26:13;101324.41;;;12.49;92.99
72685;BME280;61365;52.162;4.500;2022-10-23T00:28:42;101320.91;;;12.46;93.44
72685;BME280;61365;52.162;4.500;2022-10-23T00:31:10;101323.53;;;12.56;93.71
72685;BME280;61365;52.162;4.500;2022-10-23T00:33:37;101315.59;;;12.68;92.40
72685;BME280;61365;52.162;4.500;2022-10-23T00:36:05;101322.66;;;12.54;92.69
72685;BME280;61365;52.162;4.500;2022-10-23T00:38:33;101318.28;;;12.48;92.94
72685;BME280;61365;52.162;4.500;2022-10-23T00:41:00;101312.13;;;12.30;94.59
72685;BME280;61365;52.162;4.500;2022-10-23T00:43:28;101311.25;;;12.28;95.11
72685;BME280;61365;52.162;4.500;2022-10-23T00:45:56;101313.88;;;12.36;94.78
72685;BME280;61365;52.162;4.500;2022-10-23T00:48:25;101319.16;;;12.27;95.70
72685;BME280;61365;52.162;4.500;2022-10-23T00:50:53;101316.53;;;12.24;95.72
72685;BME280;61365;52.162;4.500;2022-10-23T00:53:21;101316.53;;;12.44;94.52
72685;BME280;61365;52.162;4.500;2022-10-23T00:55:50;101297.22;;;12.39;94.59
72685;BME280;61365;52.162;4.500;2022-10-23T00:58:20;101307.72;;;12.43;94.01
72685;BME280;61365;52.162;4.500;2022-10-23T01:00:51;101305.13;;;12.19;95.23
72685;BME280;61365;52.162;4.500;2022-10-23T01:03:24;101304.25;;;12.21;95.32
72685;BME280;61365;52.162;4.500;2022-10-23T01:06:09;101295.47;;;11.99;96.36
72685;BME280;61365;52.162;4.500;2022-10-23T01:08:56;101294.59;;;12.17;95.96
72685;BME280;61365;52.162;4.500;2022-10-23T01:12:07;101296.34;;;12.01;96.63
72685;BME280;61365;52.162;4.500;2022-10-23T01:17:47;101287.56;;;11.96;97.43
72685;BME280;61365;52.162;4.500;2022-10-23T01:20:45;101279.66;;;12.28;95.64
72685;BME280;61365;52.162;4.500;2022-10-23T01:29:24;101287.53;;;11.90;98.12
72685;BME280;61365;52.162;4.500;2022-10-23T01:37:04;101278.78;;;11.97;97.72
72685;BME280;61365;52.162;4.500;2022-10-23T01:39:44;101273.56;;;12.00;98.03
72685;BME280;61365;52.162;4.500;2022-10-23T01:42:18;101281.41;;;11.91;97.92
72685;BME280;61365;52.162;4.500;2022-10-23T01:44:51;101273.53;;;11.94;97.77
72685;BME280;61365;52.162;4.500;2022-10-23T01:47:24;101264.75;;;11.98;97.04
72685;BME280;61365;52.162;4.500;2022-10-23T01:49:55;101256.88;;;11.96;97.76
72685;BME280;61365;52.162;4.500;2022-10-23T01:52:23;101248.13;;;11.97;97.34
72685;BME280;61365;52.162;4.500;2022-10-23T01:54:52;101256.00;;;12.00;97.68
72685;BME280;61365;52.162;4.500;2022-10-23T01:57:22;101253.41;;;11.99;96.69
72685;BME280;61365;52.162;4.500;2022-10-23T02:00:07;101249.88;;;11.95;97.16
72685;BME280;61365;52.162;4.500;2022-10-23T02:02:38;101248.13;;;11.97;97.34
72685;BME280;61365;52.162;4.500;2022-10-23T02:05:11;101251.63;;;11.90;98.14
72685;BME280;61365;52.162;4.500;2022-10-23T02:07:43;101249.88;;;12.05;96.61
72685;BME280;61365;52.162;4.500;2022-10-23T02:10:11;101251.63;;;12.02;96.41
72685;BME280;61365;52.162;4.500;2022-10-23T02:16:06;101241.97;;;11.97;96.72
72685;BME280;61365;52.162;4.500;2022-10-23T02:18:54;101248.09;;;11.93;97.10
72685;BME280;61365;52.162;4.500;2022-10-23T02:21:39;101238.44;;;11.92;97.42
72685;BME280;61365;52.162;4.500;2022-10-23T02:24:11;101232.34;;;12.02;96.54
72685;BME280;61365;52.162;4.500;2022-10-23T02:26:55;101225.31;;;11.87;97.41
72685;BME280;61365;52.162;4.500;2022-10-23T02:29:34;101230.56;;;11.76;98.14
72685;BME280;61365;52.162;4.500;2022-10-23T02:32:06;101226.19;;;11.84;98.47
72685;BME280;61365;52.162;4.500;2022-10-23T02:34:35;101224.44;;;11.82;98.39
72685;BME280;61365;52.162;4.500;2022-10-23T02:37:01;101220.09;;;12.01;96.97
72685;BME280;61365;52.162;4.500;2022-10-23T02:39:28;101220.06;;;11.76;97.49
72685;BME280;61365;52.162;4.500;2022-10-23T02:42:14;101211.28;;;11.66;99.05
72685;BME280;61365;52.162;4.500;2022-10-23T02:45:03;101211.28;;;11.65;99.08
72685;BME280;61365;52.162;4.500;2022-10-23T02:47:54;101213.94;;;11.73;98.33
72685;BME280;61365;52.162;4.500;2022-10-23T02:53:36;101205.13;;;11.63;99.14
72685;BME280;61365;52.162;4.500;2022-10-23T02:56:23;101199.03;;;11.54;99.26
72685;BME280;61365;52.162;4.500;2022-10-23T02:59:46;101192.88;;;11.65;99.35
72685;BME280;61365;52.162;4.500;2022-10-23T03:02:31;101185.00;;;11.66;99.27
72685;BME280;61365;52.162;4.500;2022-10-23T03:05:22;101185.00;;;11.68;99.36
72685;BME280;61365;52.162;4.500;2022-10-23T03:07:51;101183.25;;;11.57;99.67
72685;BME280;61365;52.162;4.500;2022-10-23T03:10:18;101178.00;;;11.79;98.69
72685;BME280;61365;52.162;4.500;2022-10-23T03:12:45;101175.34;;;11.73;98.68
72685;BME280;61365;52.162;4.500;2022-10-23T03:15:14;101170.97;;;11.58;99.11
72685;BME280;61365;52.162;4.500;2022-10-23T03:17:42;101178.88;;;11.84;98.30
72685;BME280;61365;52.162;4.500;2022-10-23T03:20:09;101166.59;;;11.82;97.49
72685;BME280;61365;52.162;4.500;2022-10-23T03:22:37;101170.09;;;11.90;97.08
72685;BME280;61365;52.162;4.500;2022-10-23T03:25:04;101164.84;;;11.81;97.72
72685;BME280;61365;52.162;4.500;2022-10-23T03:27:31;101169.25;;;11.69;98.79
72685;BME280;61365;52.162;4.500;2022-10-23T03:29:57;101154.34;;;11.68;98.28
72685;BME280;61365;52.162;4.500;2022-10-23T03:32:24;101156.06;;;11.65;99.22
72685;BME280;61365;52.162;4.500;2022-10-23T03:34:50;101154.31;;;11.76;99.47
72685;BME280;61365;52.162;4.500;2022-10-23T03:37:17;101154.31;;;11.99;96.53
72685;BME280;61365;52.162;4.500;2022-10-23T03:39:43;101144.66;;;11.83;97.77
72685;BME280;61365;52.162;4.500;2022-10-23T03:42:09;101139.44;;;11.64;98.79
72685;BME280;61365;52.162;4.500;2022-10-23T03:44:36;101139.44;;;11.58;98.72
72685;BME280;61365;52.162;4.500;2022-10-23T03:47:02;101138.56;;;11.67;98.50
72685;BME280;61365;52.162;4.500;2022-10-23T03:49:29;101130.66;;;11.56;99.11
72685;BME280;61365;52.162;4.500;2022-10-23T03:51:55;101121.03;;;11.75;98.46
72685;BME280;61365;52.162;4.500;2022-10-23T03:54:24;101114.00;;;11.79;97.47
72685;BME280;61365;52.162;4.500;2022-10-23T03:56:52;101107.91;;;11.55;99.08
72685;BME280;61365;52.162;4.500;2022-10-23T03:59:19;101104.38;;;11.61;99.39
72685;BME280;61365;52.162;4.500;2022-10-23T04:01:45;101108.78;;;11.63;98.93
72685;BME280;61365;52.162;4.500;2022-10-23T04:04:12;101102.66;;;11.50;99.69
72685;BME280;61365;52.162;4.500;2022-10-23T04:06:39;101102.63;;;11.64;99.88
72685;BME280;61365;52.162;4.500;2022-10-23T04:09:06;101095.59;;;11.80;97.80
72685;BME280;61365;52.162;4.500;2022-10-23T04:11:32;101099.13;;;11.68;98.30
72685;BME280;61365;52.162;4.500;2022-10-23T04:13:59;101100.88;;;11.83;97.58
72685;BME280;61365;52.162;4.500;2022-10-23T04:16:25;101098.25;;;11.69;98.35
72685;BME280;61365;52.162;4.500;2022-10-23T04:18:52;101086.84;;;11.66;98.64
72685;BME280;61365;52.162;4.500;2022-10-23T04:21:18;101085.06;;;11.79;98.67
72685;BME280;61365;52.162;4.500;2022-10-23T04:23:44;101079.84;;;11.77;98.16
72685;BME280;61365;52.162;4.500;2022-10-23T04:26:11;101078.09;;;11.68;98.93
72685;BME280;61365;52.162;4.500;2022-10-23T04:28:37;101079.00;;;11.60;99.29
72685;BME280;61365;52.162;4.500;2022-10-23T04:31:04;101074.63;;;11.55;99.49
72685;BME280;61365;52.162;4.500;2022-10-23T04:33:31;101069.34;;;11.63;99.67
72685;BME280;61365;52.162;4.500;2022-10-23T04:35:57;101074.59;;;11.68;98.68
72685;BME280;61365;52.162;4.500;2022-10-23T04:38:24;101079.81;;;11.83;98.31
72685;BME280;61365;52.162;4.500;2022-10-23T04:40:51;101079.84;;;11.77;98.44
72685;BME280;61365;52.162;4.500;2022-10-23T04:43:17;101076.34;;;11.66;98.56
72685;BME280;61365;52.162;4.500;2022-10-23T04:45:43;101064.06;;;11.68;98.96
72685;BME280;61365;52.162;4.500;2022-10-23T04:48:09;101062.31;;;11.68;99.02
72685;BME280;61365;52.162;4.500;2022-10-23T04:50:36;101058.81;;;11.73;98.77
72685;BME280;61365;52.162;4.500;2022-10-23T04:53:02;101062.28;;;11.81;97.83
72685;BME280;61365;52.162;4.500;2022-10-23T04:55:28;101069.28;;;11.86;97.67
72685;BME280;61365;52.162;4.500;2022-10-23T04:57:55;101070.19;;;11.82;97.44
72685;BME280;61365;52.162;4.500;2022-10-23T05:00:21;101070.16;;;11.90;97.14
72685;BME280;61365;52.162;4.500;2022-10-23T05:02:48;101072.78;;;11.93;96.48
72685;BME280;61365;52.162;4.500;2022-10-23T05:05:14;101071.03;;;12.06;96.27
72685;BME280;61365;52.162;4.500;2022-10-23T05:07:40;101068.41;;;12.00;95.75
72685;BME280;61365;52.162;4.500;2022-10-23T05:10:07;101065.75;;;11.94;96.38
72685;BME280;61365;52.162;4.500;2022-10-23T05:12:33;101060.53;;;11.84;97.27
72685;BME280;61365;52.162;4.500;2022-10-23T05:15:00;101053.47;;;12.04;95.94
72685;BME280;61365;52.162;4.500;2022-10-23T05:17:30;101043.84;;;11.96;96.65
72685;BME280;61365;52.162;4.500;2022-10-23T05:20:03;101052.63;;;11.87;97.22
72685;BME280;61365;52.162;4.500;2022-10-23T05:22:35;101038.56;;;11.95;97.73
72685;BME280;61365;52.162;4.500;2022-10-23T05:25:04;101043.84;;;12.01;97.48
72685;BME280;61365;52.162;4.500;2022-10-23T05:27:31;101048.19;;;12.10;95.76
72685;BME280;61365;52.162;4.500;2022-10-23T05:29:57;101043.84;;;11.93;97.23
72685;BME280;61365;52.162;4.500;2022-10-23T05:32:26;101049.94;;;12.11;96.23
72685;BME280;61365;52.162;4.500;2022-10-23T05:34:56;101042.97;;;12.05;95.95
72685;BME280;61365;52.162;4.500;2022-10-23T05:37:24;101042.06;;;11.98;97.04
72685;BME280;61365;52.162;4.500;2022-10-23T05:39:51;101042.09;;;12.00;96.84
72685;BME280;61365;52.162;4.500;2022-10-23T05:42:17;101041.22;;;12.07;96.88
72685;BME280;61365;52.162;4.500;2022-10-23T05:44:44;101039.47;;;12.00;96.73
72685;BME280;61365;52.162;4.500;2022-10-23T05:47:10;101042.09;;;12.01;97.04
72685;BME280;61365;52.162;4.500;2022-10-23T05:49:36;101035.06;;;12.08;97.02
72685;BME280;61365;52.162;4.500;2022-10-23T05:52:02;101024.50;;;12.14;96.77
72685;BME280;61365;52.162;4.500;2022-10-23T05:54:29;101035.84;;;12.26;95.80
72685;BME280;61365;52.162;4.500;2022-10-23T05:56:56;101027.16;;;12.07;96.88
72685;BME280;61365;52.162;4.500;2022-10-23T05:59:23;101024.50;;;12.16;96.51
72685;BME280;61365;52.162;4.500;2022-10-23T06:01:49;101021.94;;;12.02;97.26
72685;BME280;61365;52.162;4.500;2022-10-23T06:04:15;101014.91;;;12.04;97.23
72685;BME280;61365;52.162;4.500;2022-10-23T06:06:44;101016.63;;;12.10;97.37
72685;BME280;61365;52.162;4.500;2022-10-23T06:09:11;101016.66;;;12.08;97.36
72685;BME280;61365;52.162;4.500;2022-10-23T06:11:39;101012.28;;;11.99;98.00
72685;BME280;61365;52.162;4.500;2022-10-23T06:14:05;101019.28;;;12.05;97.74
72685;BME280;61365;52.162;4.500;2022-10-23T06:16:32;101013.09;;;12.15;96.66
72685;BME280;61365;52.162;4.500;2022-10-23T06:18:58;101022.81;;;12.07;97.17
72685;BME280;61365;52.162;4.500;2022-10-23T06:21:25;101009.53;;;12.29;96.78
72685;BME280;61365;52.162;4.500;2022-10-23T06:23:51;101003.38;;;12.31;96.35
72685;BME280;61365;52.162;4.500;2022-10-23T06:26:18;100999.91;;;12.23;96.28
72685;BME280;61365;52.162;4.500;2022-10-23T06:28:44;100999.84;;;12.32;96.47
72685;BME280;61365;52.162;4.500;2022-10-23T06:31:14;100993.84;;;12.10;97.42
72685;BME280;61365;52.162;4.500;2022-10-23T06:33:41;100986.69;;;12.32;96.86
72685;BME280;61365;52.162;4.500;2022-10-23T06:36:08;100988.31;;;12.52;94.97
72685;BME280;61365;52.162;4.500;2022-10-23T06:38:36;100976.28;;;12.17;96.85
72685;BME280;61365;52.162;4.500;2022-10-23T06:41:09;100974.47;;;12.24;97.17
72685;BME280;61365;52.162;4.500;2022-10-23T06:43:39;100970.19;;;12.06;98.11
72685;BME280;61365;52.162;4.500;2022-10-23T06:46:08;100970.16;;;12.12;98.12
72685;BME280;61365;52.162;4.500;2022-10-23T06:48:35;100979.75;;;12.21;97.50
72685;BME280;61365;52.162;4.500;2022-10-23T06:51:07;100981.56;;;12.14;98.05
72685;BME280;61365;52.162;4.500;2022-10-23T06:53:35;100983.28;;;12.21;97.87
72685;BME280;61365;52.162;4.500;2022-10-23T06:56:04;100979.72;;;12.30;97.74
72685;BME280;61365;52.162;4.500;2022-10-23T06:58:33;100983.28;;;12.21;97.42
72685;BME280;61365;52.162;4.500;2022-10-23T07:01:01;100972.72;;;12.26;97.02
72685;BME280;61365;52.162;4.500;2022-10-23T07:03:29;100965.69;;;12.28;97.36
72685;BME280;61365;52.162;4.500;2022-10-23T07:06:00;100958.56;;;12.44;96.79
72685;BME280;61365;52.162;4.500;2022-10-23T07:08:27;100957.75;;;12.32;96.58
72685;BME280;61365;52.162;4.500;2022-10-23T07:10:54;100968.28;;;12.32;96.88
72685;BME280;61365;52.162;4.500;2022-10-23T07:13:20;100954.28;;;12.29;97.06
72685;BME280;61365;52.162;4.500;2022-10-23T07:15:47;100960.41;;;12.31;96.93
72685;BME280;61365;52.162;4.500;2022-10-23T07:18:13;100964.78;;;12.27;96.54
72685;BME280;61365;52.162;4.500;2022-10-23T07:20:41;100964.94;;;12.07;98.25
72685;BME280;61365;52.162;4.500;2022-10-23T07:23:10;100966.63;;;12.19;98.03
72685;BME280;61365;52.162;4.500;2022-10-23T07:25:37;100962.13;;;12.35;97.29
72685;BME280;61365;52.162;4.500;2022-10-23T07:28:04;100948.81;;;12.60;95.19
72685;BME280;61365;52.162;4.500;2022-10-23T07:30:30;100936.72;;;12.34;96.76
72685;BME280;61365;52.162;4.500;2022-10-23T07:32:57;100951.56;;;12.41;96.57
72685;BME280;61365;52.162;4.500;2022-10-23T07:35:23;100949.00;;;12.29;97.18
72685;BME280;61365;52.162;4.500;2022-10-23T07:37:49;100947.34;;;12.17;97.95
72685;BME280;61365;52.162;4.500;2022-10-23T07:40:16;100958.75;;;12.11;98.00
72685;BME280;61365;52.162;4.500;2022-10-23T07:42:43;100940.13;;;12.47;95.44
72685;BME280;61365;52.162;4.500;2022-10-23T07:45:10;100952.50;;;12.31;97.12
72685;BME280;61365;52.162;4.500;2022-10-23T07:47:37;100949.94;;;12.19;98.01
72685;BME280;61365;52.162;4.500;2022-10-23T07:50:04;100942.78;;;12.39;96.59
72685;BME280;61365;52.162;4.500;2022-10-23T07:52:30;100941.00;;;12.46;96.34
72685;BME280;61365;52.162;4.500;2022-10-23T07:54:56;100934.00;;;12.43;96.46
72685;BME280;61365;52.162;4.500;2022-10-23T07:57:23;100935.69;;;12.52;95.20
72685;BME280;61365;52.162;4.500;2022-10-23T07:59:49;100924.34;;;12.45;96.89
72685;BME280;61365;52.162;4.500;2022-10-23T08:02:16;100918.78;;;12.78;94.67
72685;BME280;61365;52.162;4.500;2022-10-23T08:04:42;100928.63;;;12.57;95.77
72685;BME280;61365;52.162;4.500;2022-10-23T08:07:09;100929.44;;;12.66;95.26
72685;BME280;61365;52.162;4.500;2022-10-23T08:09:35;100910.94;;;12.73;94.82
72685;BME280;61365;52.162;4.500;2022-10-23T08:12:03;100922.19;;;12.93;94.04
72685;BME280;61365;52.162;4.500;2022-10-23T08:14:30;100925.03;;;12.71;95.00
72685;BME280;61365;52.162;4.500;2022-10-23T08:16:56;100921.56;;;12.63;95.45
72685;BME280;61365;52.162;4.500;2022-10-23T08:19:22;100913.38;;;12.97;94.22
72685;BME280;61365;52.162;4.500;2022-10-23T08:21:48;100910.94;;;12.73;95.26
72685;BME280;61365;52.162;4.500;2022-10-23T08:24:19;100917.09;;;12.72;95.45
72685;BME280;61365;52.162;4.500;2022-10-23T08:26:48;100918.75;;;12.84;95.15
72685;BME280;61365;52.162;4.500;2022-10-23T08:29:15;100906.50;;;12.80;95.05
72685;BME280;61365;52.162;4.500;2022-10-23T08:31:41;100899.38;;;12.91;94.68
72685;BME280;61365;52.162;4.500;2022-10-23T08:34:07;100899.41;;;12.88;95.42
72685;BME280;61365;52.162;4.500;2022-10-23T08:36:34;100891.25;;;13.12;93.64
72685;BME280;61365;52.162;4.500;2022-10-23T08:39:01;100893.69;;;13.30;92.28
72685;BME280;61365;52.162;4.500;2022-10-23T08:47:18;100875.50;;;13.07;93.83
72685;BME280;61365;52.162;4.500;2022-10-23T08:53:21;100856.06;;;13.16;94.15
72685;BME280;61365;52.162;4.500;2022-10-23T08:56:00;100863.34;;;12.97;94.54
72685;BME280;61365;52.162;4.500;2022-10-23T09:00:56;100859.63;;;13.13;93.83
72685;BME280;61365;52.162;4.500;2022-10-23T09:03:23;100858.69;;;13.19;93.39
72685;BME280;61365;52.162;4.500;2022-10-23T09:06:14;100849.13;;;13.10;94.05
72685;BME280;61365;52.162;4.500;2022-10-23T09:09:14;100855.03;;;13.32;93.24
72685;BME280;61365;52.162;4.500;2022-10-23T09:12:02;100849.59;;;13.48;91.96
72685;BME280;61365;52.162;4.500;2022-10-23T09:15:34;100849.00;;;13.21;93.97
72685;BME280;61365;52.162;4.500;2022-10-23T09:18:11;100834.75;;;13.36;93.09
72685;BME280;61365;52.162;4.500;2022-10-23T09:20:40;100839.09;;;13.42;92.87
72685;BME280;61365;52.162;4.500;2022-10-23T09:25:50;100836.47;;;13.42;92.67
72685;BME280;61365;52.162;4.500;2022-10-23T09:28:26;100824.16;;;13.45;92.51
72685;BME280;61365;52.162;4.500;2022-10-23T09:31:07;100822.38;;;13.46;92.88
72685;BME280;61365;52.162;4.500;2022-10-23T09:33:35;100820.47;;;13.56;92.39
72685;BME280;61365;52.162;4.500;2022-10-23T09:36:07;100819.59;;;13.57;92.35
72685;BME280;61365;52.162;4.500;2022-10-23T09:41:23;100808.13;;;13.59;92.87
72685;BME280;61365;52.162;4.500;2022-10-23T09:46:45;100805.84;;;13.95;90.22
72685;BME280;61365;52.162;4.500;2022-10-23T09:49:22;100804.34;;;13.79;91.26
72685;BME280;61365;52.162;4.500;2022-10-23T09:54:32;100799.13;;;13.74;91.88
72685;BME280;61365;52.162;4.500;2022-10-23T09:57:18;100791.22;;;13.73;92.22
72685;BME280;61365;52.162;4.500;2022-10-23T10:00:05;100797.44;;;13.70;92.48
72685;BME280;61365;52.162;4.500;2022-10-23T10:02:52;100774.56;;;13.72;91.91
72685;BME280;61365;52.162;4.500;2022-10-23T10:05:35;100782.50;;;13.68;92.69
72685;BME280;61365;52.162;4.500;2022-10-23T10:17:04;100780.78;;;13.66;93.09
72685;BME280;61365;52.162;4.500;2022-10-23T10:28:22;100745.91;;;14.02;90.98
72685;BME280;61365;52.162;4.500;2022-10-23T10:34:19;100751.28;;;13.99;91.05
72685;BME280;61365;52.162;4.500;2022-10-23T10:37:58;100736.31;;;14.00;91.20
72685;BME280;61365;52.162;4.500;2022-10-23T10:40:37;100735.91;;;14.21;90.35
72685;BME280;61365;52.162;4.500;2022-10-23T10:43:27;100719.94;;;14.29;89.60
72685;BME280;61365;52.162;4.500;2022-10-23T10:51:45;100696.03;;;14.38;89.16
72685;BME280;61365;52.162;4.500;2022-10-23T10:57:30;100665.91;;;14.49;88.27
72685;BME280;61365;52.162;4.500;2022-10-23T11:00:16;100652.44;;;14.63;87.61
72685;BME280;61365;52.162;4.500;2022-10-23T11:02:47;100646.50;;;14.51;88.14
72685;BME280;61365;52.162;4.500;2022-10-23T11:05:35;100639.59;;;14.88;86.78
72685;BME280;61365;52.162;4.500;2022-10-23T11:08:12;100630.47;;;15.01;86.31
72685;BME280;61365;52.162;4.500;2022-10-23T11:10:45;100618.84;;;15.09;85.74
72685;BME280;61365;52.162;4.500;2022-10-23T11:13:33;100614.94;;;14.88;86.73
72685;BME280;61365;52.162;4.500;2022-10-23T11:27:47;100601.44;;;15.00;86.69
72685;BME280;61365;52.162;4.500;2022-10-23T11:39:25;100566.91;;;15.08;85.83
72685;BME280;61365;52.162;4.500;2022-10-23T11:45:31;100573.53;;;15.26;85.68
72685;BME280;61365;52.162;4.500;2022-10-23T11:48:19;100554.63;;;15.41;85.11
72685;BME280;61365;52.162;4.500;2022-10-23T11:50:52;100575.03;;;15.36;85.31
72685;BME280;61365;52.162;4.500;2022-10-23T11:58:47;100562.03;;;15.61;84.48
72685;BME280;61365;52.162;4.500;2022-10-23T12:06:47;100553.56;;;15.82;83.53
72685;BME280;61365;52.162;4.500;2022-10-23T12:09:44;100544.84;;;15.78;83.51
72685;BME280;61365;52.162;4.500;2022-10-23T12:12:32;100545.56;;;15.85;83.53
72685;BME280;61365;52.162;4.500;2022-10-23T12:17:42;100536.25;;;16.03;82.16
72685;BME280;61365;52.162;4.500;2022-10-23T12:25:42;100530.22;;;15.98;83.05
72685;BME280;61365;52.162;4.500;2022-10-23T12:40:31;100520.59;;;16.55;81.29
72685;BME280;61365;52.162;4.500;2022-10-23T12:42:59;100520.03;;;16.44;81.93
72685;BME280;61365;52.162;4.500;2022-10-23T12:45:29;100509.75;;;16.34;81.99
72685;BME280;61365;52.162;4.500;2022-10-23T12:48:01;100499.88;;;16.40;81.81
72685;BME280;61365;52.162;4.500;2022-10-23T12:50:31;100503.44;;;16.39;82.00
72685;BME280;61365;52.162;4.500;2022-10-23T12:53:16;100494.38;;;16.46;81.94
72685;BME280;61365;52.162;4.500;2022-10-23T12:55:56;100473.50;;;16.36;82.22
72685;BME280;61365;52.162;4.500;2022-10-23T12:58:28;100461.59;;;16.50;81.70
72685;BME280;61365;52.162;4.500;2022-10-23T13:01:00;100458.66;;;16.59;81.84
72685;BME280;61365;52.162;4.500;2022-10-23T13:03:30;100454.41;;;16.54;81.76
72685;BME280;61365;52.162;4.500;2022-10-23T13:06:00;100454.22;;;16.60;81.19
72685;BME280;61365;52.162;4.500;2022-10-23T13:08:33;100448.72;;;16.66;81.37
72685;BME280;61365;52.162;4.500;2022-10-23T13:11:08;100441.84;;;16.60;81.65
72685;BME280;61365;52.162;4.500;2022-10-23T13:13:40;100435.66;;;16.61;81.25
72685;BME280;61365;52.162;4.500;2022-10-23T13:16:16;100425.75;;;16.66;81.09
72685;BME280;61365;52.162;4.500;2022-10-23T13:18:47;100424.97;;;16.90;79.82
72685;BME280;61365;52.162;4.500;2022-10-23T13:21:20;100421.16;;;16.72;80.79
72685;BME280;61365;52.162;4.500;2022-10-23T13:23:49;100419.59;;;16.91;80.05
72685;BME280;61365;52.162;4.500;2022-10-23T13:26:29;100409.16;;;16.88;80.17
72685;BME280;61365;52.162;4.500;2022-10-23T13:28:59;100402.94;;;16.89;80.19
72685;BME280;61365;52.162;4.500;2022-10-23T13:31:31;100388.34;;;16.76;80.79
72685;BME280;61365;52.162;4.500;2022-10-23T13:36:26;100396.00;;;16.85;80.61
72685;BME280;61365;52.162;4.500;2022-10-23T13:41:40;100378.25;;;16.87;80.36
72685;BME280;61365;52.162;4.500;2022-10-23T13:44:13;100376.22;;;16.95;80.45
72685;BME280;61365;52.162;4.500;2022-10-23T13:46:41;100375.59;;;16.87;81.00
72685;BME280;61365;52.162;4.500;2022-10-23T13:49:08;100374.00;;;17.08;79.75
72685;BME280;61365;52.162;4.500;2022-10-23T13:51:55;100378.88;;;16.95;80.47
72685;BME280;61365;52.162;4.500;2022-10-23T13:54:26;100366.88;;;17.10;80.05
72685;BME280;61365;52.162;4.500;2022-10-23T13:56:54;100353.59;;;17.10;80.02
72685;BME280;61365;52.162;4.500;2022-10-23T13:59:22;100360.13;;;17.25;79.42
72685;BME280;61365;52.162;4.500;2022-10-23T14:01:49;100345.63;;;17.12;80.07
72685;BME280;61365;52.162;4.500;2022-10-23T14:04:17;100349.13;;;17.13;79.86
72685;BME280;61365;52.162;4.500;2022-10-23T14:06:44;100345.78;;;17.31;78.70
72685;BME280;61365;52.162;4.500;2022-10-23T14:09:12;100343.88;;;17.11;79.92
72685;BME280;61365;52.162;4.500;2022-10-23T14:11:40;100348.09;;;17.17;79.78
72685;BME280;61365;52.162;4.500;2022-10-23T14:14:07;100344.81;;;17.10;80.15
72685;BME280;61365;52.162;4.500;2022-10-23T14:16:34;100346.34;;;17.16;79.84
72685;BME280;61365;52.162;4.500;2022-10-23T14:19:00;100348.47;;;17.06;80.57
72685;BME280;61365;52.162;4.500;2022-10-23T14:21:27;100345.00;;;17.04;80.54
72685;BME280;61365;52.162;4.500;2022-10-23T14:23:53;100341.06;;;17.16;80.52
72685;BME280;61365;52.162;4.500;2022-10-23T14:26:24;100336.56;;;17.18;80.38
72685;BME280;61365;52.162;4.500;2022-10-23T14:28:55;100342.09;;;17.11;80.65
72685;BME280;61365;52.162;4.500;2022-10-23T14:31:23;100343.81;;;17.13;80.78
72685;BME280;61365;52.162;4.500;2022-10-23T14:33:54;100331.03;;;17.24;80.64
72685;BME280;61365;52.162;4.500;2022-10-23T14:36:23;100332.94;;;17.20;80.73
72685;BME280;61365;52.162;4.500;2022-10-23T14:38:54;100326.47;;;17.28;80.22
72685;BME280;61365;52.162;4.500;2022-10-23T14:41:22;100344.22;;;17.25;80.56
72685;BME280;61365;52.162;4.500;2022-10-23T14:43:49;100331.91;;;17.24;80.94
72685;BME280;61365;52.162;4.500;2022-10-23T14:46:22;100328.09;;;17.32;80.58
72685;BME280;61365;52.162;4.500;2022-10-23T14:48:51;100326.81;;;17.18;81.05
72685;BME280;61365;52.162;4.500;2022-10-23T14:51:23;100314.63;;;17.14;81.40
72685;BME280;61365;52.162;4.500;2022-10-23T14:54:06;100309.06;;;17.20;81.12
72685;BME280;61365;52.162;4.500;2022-10-23T14:56:35;100297.75;;;17.15;81.36
72685;BME280;61365;52.162;4.500;2022-10-23T14:59:03;100299.84;;;17.07;82.02
72685;BME280;61365;52.162;4.500;2022-10-23T15:01:32;100302.31;;;17.11;81.86
72685;BME280;61365;52.162;4.500;2022-10-23T15:04:01;100295.19;;;17.14;81.66
72685;BME280;61365;52.162;4.500;2022-10-23T15:06:28;100299.78;;;17.08;81.96
72685;BME280;61365;52.162;4.500;2022-10-23T15:08:54;100293.50;;;17.11;81.79
72685;BME280;61365;52.162;4.500;2022-10-23T15:11:25;100293.91;;;17.00;82.18
72685;BME280;61365;52.162;4.500;2022-10-23T15:13:52;100275.19;;;17.05;81.86
72685;BME280;61365;52.162;4.500;2022-10-23T15:16:21;100279.75;;;17.01;82.17
72685;BME280;61365;52.162;4.500;2022-10-23T15:18:48;100273.53;;;17.02;81.92
72685;BME280;61365;52.162;4.500;2022-10-23T15:21:15;100271.78;;;17.01;81.94
72685;BME280;61365;52.162;4.500;2022-10-23T15:23:43;100266.00;;;17.14;81.19
72685;BME280;61365;52.162;4.500;2022-10-23T15:26:15;100258.41;;;17.04;81.64
72685;BME280;61365;52.162;4.500;2022-10-23T15:28:51;100254.38;;;16.92;82.09